Allentsteig, Austria

9:53 PM CEST on September 19, 2014 (GMT +0200)
INIEDERS238 | Change Station
CLOSE
Current Station
Personal Weather Station
Location: Limpfings, NIEDERöSTERREICH
Elevation: 1719 ft
Nearby Weather Stations

Elev 1719 ft 48.75 °N, 15.27 °E | Updated 3 seconds ago

Mostly Cloudy
Mostly Cloudy
58.5 °F
Feels Like 58.5 °F
N
0.0
Wind Variable Wind from SSW
Gusts 0.0 mph

Today
High -- | Low -- °F
--% Chance of Precip.
Yesterday
High -- | Low -- °F
Precip. -- in
6:40 AM 7:03 PM
Waning Crescent, 17% visible
Pressure 29.98 in
Visibility 6.2 miles
Clouds Few 6000 ft
Scattered Clouds 11000 ft
Mostly Cloudy 21000 ft
Dew Point 58 °F
Humidity 97%
Rainfall 0.00 in
Snow Depth Not available.
UV 0.0 out of 12
Pollen Not available.
Air Quality Not available.
Flu Activity Not available.
METAR LOWL 191920Z 07006KT 9999 FEW060TCU SCT110 BKN210 17/15 Q1015 TEMPO SHRA

More Conditions Fewer Conditions

Pressure 29.98 in
Visibility 6.2 miles
Clouds Few 6000 ft
Scattered Clouds 11000 ft
Mostly Cloudy 21000 ft
Dew Point 58 °F
Humidity 97%
Rainfall 0.00 in
Snow Depth Not available.
UV 0.0 out of 12
Pollen Not available.
Air Quality Not available.
Flu Activity Not available.
METAR LOWL 191920Z 07006KT 9999 FEW060TCU SCT110 BKN210 17/15 Q1015 TEMPO SHRA

More Conditions Fewer Conditions

10-Day Weather Forecast

Almanac

Astronomy

Sep. 19, 2014 Rise Set
Actual Time 6:40 AM CEST 7:03 PM CEST
Civil Twilight 6:08 AM CEST 7:34 PM CEST
Nautical Twilight 5:31 AM CEST 8:11 PM CEST
Astronomical Twilight 4:52 AM CEST 8:50 PM CEST
Moon 1:52 AM CEST 4:37 PM CEST
Length of Visible Light 13h 25m
Length of Day
12h 22m
Tomorrow will be 3m 32s shorter.
Waning Crescent, 17% of the Moon is Illuminated
Today
Waning Crescent
Sep 24
New
Oct 1
First Quarter
Oct 8
Full
Oct 15
Last Quarter

Today's Extremes

Country Highs Country Lows

Community

WunderPhotos

Upload Photos

1,754,687 photos uploaded!

WunderBlogs® & News

By Dr. Jeff Masters
Director of Meteorology, Weather Underground
By Kari Strenfel
Meteorologist, Weather Underground
By Christopher C. Burt
Weather Historian, Weather Underground
September 19, 2014
September 19, 2014
September 19, 2014

Nearby

Snow Depth

Not available.

Earthquake Activity

City Distance Mag. Time & Date
No recent earthquake activity has been reported nearby.
Minimum magnitude displayed is 2.5.

Coastal Water Temperatures

Place Temperature
No Stations Reporting

Nearby Weather Stations